createdAt,value
2023-04-01T00:02:44.154Z,97231.77
2023-04-01T00:05:12.994Z,97232.25
2023-04-01T00:07:42.403Z,97222.65
2023-04-01T00:10:18.771Z,97223.99
2023-04-01T00:17:39.637Z,97213.67
2023-04-01T00:21:42.503Z,97216.14
2023-04-01T00:24:11.194Z,97213.44
2023-04-01T00:26:43.387Z,97208.48
2023-04-01T00:29:38.712Z,97217.02
2023-04-01T00:37:24.151Z,97213.78
2023-04-01T00:41:08.798Z,97205.94
2023-04-01T00:45:15.069Z,97196.90
2023-04-01T00:49:33.720Z,97184.92
2023-04-01T00:53:26.465Z,97176.75
2023-04-01T00:57:35.766Z,97167.60
2023-04-01T01:00:49.175Z,97152.88
2023-04-01T01:04:03.451Z,97143.52
2023-04-01T01:06:48.556Z,97131.91
2023-04-01T01:26:55.283Z,97097.42
2023-04-01T01:30:07.853Z,97100.55
2023-04-01T01:32:54.592Z,97086.27
2023-04-01T01:36:09.148Z,97076.76
2023-04-01T01:39:49.715Z,97078.79
2023-04-01T01:43:01.806Z,97073.77
2023-04-01T01:47:03.225Z,97084.59
2023-04-01T01:49:54.114Z,97087.20
2023-04-01T01:52:25.631Z,97077.99
2023-04-01T01:54:56.711Z,97075.81
2023-04-01T01:57:33.180Z,97081.08
2023-04-01T02:00:14.782Z,97091.52
2023-04-01T02:02:47.201Z,97097.88
2023-04-01T02:05:22.875Z,97090.73
2023-04-01T02:08:12.042Z,97093.05
2023-04-01T02:10:44.829Z,97092.11
2023-04-01T02:13:28.382Z,97097.52
2023-04-01T02:16:12.639Z,97092.80
2023-04-01T02:19:12.522Z,97091.91
2023-04-01T02:26:05.037Z,97108.84
2023-04-01T02:29:53.662Z,97115.42
2023-04-01T02:33:32.871Z,97119.31
2023-04-01T02:37:32.760Z,97125.92
2023-04-01T02:52:45.899Z,97140.04
2023-04-01T02:55:39.492Z,97147.96
2023-04-01T02:58:08.090Z,97145.17
2023-04-01T03:00:36.950Z,97147.19
2023-04-01T03:03:06.052Z,97149.95
2023-04-01T03:05:35.091Z,97151.70
2023-04-01T03:08:04.307Z,97151.76
2023-04-01T03:10:32.553Z,97156.45
2023-04-01T03:13:01.298Z,97165.91
2023-04-01T03:15:50.185Z,97170.44
2023-04-01T03:18:19.142Z,97182.50
2023-04-01T03:21:07.179Z,97185.54
2023-04-01T03:23:59.926Z,97207.99
2023-04-01T03:29:45.871Z,97223.08
2023-04-01T03:32:20.602Z,97232.33
2023-04-01T03:34:49.372Z,97241.66
2023-04-01T03:37:38.864Z,97244.89
2023-04-01T03:40:08.036Z,97246.70
2023-04-01T03:42:37.141Z,97251.63
2023-04-01T03:45:06.898Z,97251.16
2023-04-01T03:47:35.264Z,97255.48
2023-04-01T03:58:26.956Z,97274.95
2023-04-01T04:06:50.733Z,97298.42
2023-04-01T04:10:36.674Z,97303.03
2023-04-01T04:13:10.967Z,97299.98
2023-04-01T04:15:47.134Z,97292.30
2023-04-01T04:21:31.398Z,97302.95
2023-04-01T04:24:02.722Z,97303.65
2023-04-01T04:26:40.689Z,97304.94
2023-04-01T04:29:09.367Z,97306.10
2023-04-01T04:31:38.162Z,97312.06
2023-04-01T04:34:06.858Z,97313.84
2023-04-01T04:36:37.039Z,97315.33
2023-04-01T04:39:25.898Z,97314.89
2023-04-01T04:41:54.894Z,97314.46
2023-04-01T04:45:08.846Z,97311.10
2023-04-01T04:47:41.440Z,97316.02
2023-04-01T04:50:10.286Z,97314.31
2023-04-01T04:52:42.353Z,97314.64
2023-04-01T04:55:11.104Z,97312.77
2023-04-01T04:57:41.290Z,97314.26
2023-04-01T05:00:11.600Z,97311.52
2023-04-01T05:03:07.898Z,97309.70
2023-04-01T05:05:37.976Z,97305.67
2023-04-01T05:08:21.081Z,97301.17
2023-04-01T05:10:55.030Z,97299.99
2023-04-01T05:13:27.582Z,97299.45
2023-04-01T05:16:04.935Z,97300.09
2023-04-01T05:18:35.696Z,97303.78
2023-04-01T05:21:09.828Z,97302.07
2023-04-01T05:23:59.474Z,97302.67
2023-04-01T05:26:33.066Z,97305.02
2023-04-01T05:29:05.874Z,97304.54
2023-04-01T05:31:51.889Z,97302.50
2023-04-01T05:34:22.882Z,97300.45
2023-04-01T05:37:05.388Z,97301.77
2023-04-01T05:39:57.234Z,97293.11
2023-04-01T05:42:29.480Z,97296.12
2023-04-01T05:44:57.895Z,97294.68
2023-04-01T05:47:44.738Z,97298.38
2023-04-01T06:15:35.396Z,97277.36
2023-04-01T06:18:52.889Z,97268.59
2023-04-01T06:30:40.868Z,97282.41
2023-04-01T06:34:08.993Z,97283.16
2023-04-01T06:37:16.513Z,97274.34
2023-04-01T06:40:11.729Z,97270.45
2023-04-01T06:42:47.323Z,97268.80
2023-04-01T06:49:42.090Z,97271.56
2023-04-01T06:53:13.254Z,97269.79
2023-04-01T06:56:14.108Z,97267.72
2023-04-01T06:59:27.990Z,97268.20
2023-04-01T07:02:19.190Z,97268.13
2023-04-01T07:04:52.958Z,97273.90
2023-04-01T07:07:43.097Z,97274.38
2023-04-01T07:10:44.014Z,97278.89
2023-04-01T07:13:57.832Z,97286.91
2023-04-01T07:16:33.789Z,97284.73
2023-04-01T07:19:23.082Z,97283.61
2023-04-01T07:22:11.750Z,97292.71
2023-04-01T07:25:04.015Z,97288.42
2023-04-01T07:27:32.531Z,97288.85
2023-04-01T07:30:02.446Z,97291.41
2023-04-01T07:32:47.992Z,97293.44
2023-04-01T07:35:57.221Z,97293.27
2023-04-01T07:38:47.057Z,97298.14
2023-04-01T07:41:16.844Z,97299.31
2023-04-01T07:44:33.999Z,97298.19
2023-04-01T07:47:16.887Z,97300.95
2023-04-01T07:50:12.030Z,97298.95
2023-04-01T07:53:10.471Z,97303.81
2023-04-01T07:55:57.473Z,97304.92
2023-04-01T07:58:45.048Z,97310.11
2023-04-01T08:01:41.781Z,97312.27
2023-04-01T08:04:13.889Z,97310.34
2023-04-01T08:06:54.686Z,97309.09
2023-04-01T08:09:49.408Z,97312.08
2023-04-01T08:12:56.757Z,97317.21
2023-04-01T08:16:05.691Z,97319.78
2023-04-01T08:18:51.809Z,97318.40
2023-04-01T08:21:32.405Z,97316.25
2023-04-01T08:24:12.540Z,97308.17
2023-04-01T08:26:52.590Z,97309.02
2023-04-01T08:29:36.849Z,97313.63
2023-04-01T08:32:18.485Z,97313.98
2023-04-01T08:45:15.681Z,97308.13
2023-04-01T08:50:48.947Z,97291.15
2023-04-01T08:54:01.278Z,97281.19
2023-04-01T08:57:14.851Z,97270.43
2023-04-01T09:00:59.951Z,97263.23
2023-04-01T09:04:03.518Z,97256.95
2023-04-01T09:06:50.820Z,97244.52
2023-04-01T09:09:38.670Z,97237.04
2023-04-01T09:12:34.294Z,97223.57
2023-04-01T09:15:18.070Z,97211.81
2023-04-01T09:18:08.703Z,97200.13
2023-04-01T09:20:54.458Z,97197.38
2023-04-01T09:24:02.985Z,97195.51
2023-04-01T09:26:46.578Z,97199.05
2023-04-01T09:29:39.083Z,97203.48
2023-04-01T09:32:33.297Z,97204.77
2023-04-01T09:35:34.503Z,97203.25
2023-04-01T09:38:23.518Z,97203.79
2023-04-01T09:41:16.354Z,97192.38
2023-04-01T09:44:26.026Z,97191.10
2023-04-01T09:47:24.542Z,97191.27
2023-04-01T09:50:01.195Z,97194.92
2023-04-01T09:53:13.376Z,97193.26
2023-04-01T09:56:25.013Z,97201.17
2023-04-01T09:59:12.582Z,97198.73
2023-04-01T10:02:23.084Z,97195.82
2023-04-01T10:16:54.397Z,97189.03
2023-04-01T10:54:24.451Z,97218.34
2023-04-01T10:57:34.689Z,97227.24
2023-04-01T11:01:00.412Z,97246.28
2023-04-01T11:04:32.753Z,97269.66
2023-04-01T11:08:05.886Z,97287.16
2023-04-01T11:11:19.585Z,97291.16
2023-04-01T11:14:21.748Z,97300.73
2023-04-01T11:17:19.338Z,97309.78
2023-04-01T11:20:06.540Z,97313.88
2023-04-01T11:23:51.948Z,97320.21
2023-04-01T11:26:57.440Z,97331.27
2023-04-01T13:06:06.777Z,97408.98
2023-04-01T13:08:59.904Z,97413.43
2023-04-01T13:27:07.456Z,97353.94
2023-04-01T13:29:51.120Z,97385.59
2023-04-01T13:32:43.408Z,97387.13
2023-04-01T13:35:28.742Z,97392.77
2023-04-01T13:38:02.624Z,97390.98
2023-04-01T13:41:01.762Z,97390.66
2023-04-01T13:43:38.044Z,97391.84
2023-04-01T13:46:27.604Z,97394.73
2023-04-01T13:49:07.401Z,97398.86
2023-04-01T13:52:00.511Z,97398.73
2023-04-01T13:54:28.257Z,97401.04
2023-04-01T13:57:30.541Z,97397.04
2023-04-01T14:00:31.886Z,97406.76
2023-04-01T14:03:24.300Z,97407.50
2023-04-01T14:06:15.669Z,97409.06
2023-04-01T15:11:03.707Z,97504.86
2023-04-01T16:36:34.231Z,97661.48
2023-04-01T16:47:50.716Z,97684.17
2023-04-01T16:55:04.125Z,97692.69
2023-04-01T16:57:44.296Z,97701.25
2023-04-01T17:00:23.862Z,97702.69
2023-04-01T17:03:50.776Z,97705.15
2023-04-01T17:08:41.798Z,97719.98
2023-04-01T17:12:33.387Z,97736.41
2023-04-01T17:16:23.657Z,97746.70
2023-04-01T17:26:09.114Z,97748.67
2023-04-01T17:28:49.156Z,97750.43
2023-04-01T17:31:42.837Z,97756.95
2023-04-01T17:34:38.339Z,97764.06
2023-04-01T17:37:18.750Z,97772.57
2023-04-01T17:40:16.809Z,97776.92
2023-04-01T17:43:08.270Z,97790.25
2023-04-01T17:45:54.791Z,97789.23
2023-04-01T17:48:56.041Z,97793.45
2023-04-01T17:51:37.478Z,97806.33
2023-04-01T17:54:45.343Z,97813.19
2023-04-01T17:57:51.716Z,97823.13
2023-04-01T18:00:27.130Z,97828.64
2023-04-01T18:03:18.351Z,97834.03
2023-04-01T18:06:21.111Z,97838.08
2023-04-01T18:08:56.803Z,97838.63
2023-04-01T18:11:38.707Z,97840.71
2023-04-01T18:14:37.042Z,97845.20
2023-04-01T18:17:08.493Z,97854.32
2023-04-01T18:20:17.017Z,97853.96
2023-04-01T18:22:58.558Z,97862.95
2023-04-01T18:25:40.901Z,97862.73
2023-04-01T18:28:32.240Z,97862.77
2023-04-01T18:31:11.086Z,97868.94
2023-04-01T18:34:08.079Z,97866.85
2023-04-01T18:36:42.565Z,97874.70
2023-04-01T18:39:39.027Z,97869.30
2023-04-01T18:42:38.251Z,97878.40
2023-04-01T18:45:30.006Z,97884.02
2023-04-01T18:48:17.697Z,97888.30
2023-04-01T18:50:57.051Z,97890.95
2023-04-01T18:53:37.538Z,97894.48
2023-04-01T18:56:12.030Z,97900.05
2023-04-01T18:58:59.437Z,97900.48
2023-04-01T19:01:44.235Z,97908.44
2023-04-01T19:04:43.159Z,97914.09
2023-04-01T19:07:29.938Z,97917.73
2023-04-01T19:10:13.264Z,97919.73
2023-04-01T19:13:11.887Z,97922.51
2023-04-01T19:15:49.234Z,97928.95
2023-04-01T19:18:27.466Z,97929.91
2023-04-01T19:21:04.240Z,97933.40
2023-04-01T19:24:00.320Z,97936.80
2023-04-01T19:26:35.701Z,97942.86
2023-04-01T19:29:19.916Z,97943.08
2023-04-01T19:31:56.987Z,97946.06
2023-04-01T19:34:32.050Z,97949.39
2023-04-01T19:37:12.771Z,97952.86
2023-04-01T19:39:47.220Z,97958.20
2023-04-01T19:43:03.642Z,97961.73
2023-04-01T19:45:49.807Z,97969.97
2023-04-01T19:48:39.592Z,97970.42
2023-04-01T19:51:23.448Z,97971.59
2023-04-01T19:53:58.302Z,97976.23
2023-04-01T19:56:37.347Z,97979.48
2023-04-01T19:59:16.279Z,97984.80
2023-04-01T20:02:19.861Z,97990.93
2023-04-01T20:04:57.388Z,97991.98
2023-04-01T20:07:34.602Z,97995.84
2023-04-01T20:10:21.921Z,97995.34
2023-04-01T20:13:17.339Z,97998.02
2023-04-01T20:15:48.437Z,98001.02
2023-04-01T20:18:33.886Z,98000.38
2023-04-01T20:21:16.480Z,98005.98
2023-04-01T20:23:56.756Z,98008.21
2023-04-01T20:26:39.310Z,98010.56
2023-04-01T20:29:38.485Z,98012.13
2023-04-01T20:32:29.624Z,98018.30
2023-04-01T20:35:27.365Z,98019.80
2023-04-01T20:38:35.872Z,98025.94
2023-04-01T20:41:24.430Z,98033.73
2023-04-01T20:44:13.076Z,98036.61
2023-04-01T20:46:49.180Z,98049.76
2023-04-01T20:49:42.874Z,98052.48
2023-04-01T20:52:16.041Z,98057.96
2023-04-01T20:55:18.448Z,98059.83
2023-04-01T20:58:04.153Z,98067.08
2023-04-01T21:00:40.802Z,98066.80
2023-04-01T21:03:47.116Z,98062.36
2023-04-01T21:06:44.983Z,98065.52
2023-04-01T21:09:28.347Z,98064.73
2023-04-01T21:12:16.486Z,98066.00
2023-04-01T21:15:15.893Z,98070.90
2023-04-01T21:18:00.041Z,98077.41
2023-04-01T21:20:43.349Z,98080.52
2023-04-01T21:23:17.352Z,98091.45
2023-04-01T21:25:53.171Z,98095.59
2023-04-01T21:28:29.852Z,98099.64
2023-04-01T21:31:35.619Z,98108.14
2023-04-01T21:34:46.088Z,98114.39
2023-04-01T21:37:46.416Z,98117.05
2023-04-01T21:40:39.078Z,98119.52
2023-04-01T21:43:37.861Z,98118.23
2023-04-01T21:46:33.224Z,98120.17
2023-04-01T21:49:25.690Z,98122.08
2023-04-01T21:52:19.607Z,98127.57
2023-04-01T21:55:25.961Z,98133.78
2023-04-01T21:58:07.818Z,98140.90
2023-04-01T22:00:59.205Z,98143.03
2023-04-01T22:03:56.974Z,98153.06
2023-04-01T22:06:44.677Z,98162.38
2023-04-01T22:09:23.615Z,98163.19
2023-04-01T22:12:34.060Z,98166.48
2023-04-01T22:15:18.380Z,98171.14
2023-04-01T22:18:04.329Z,98170.60
2023-04-01T22:20:46.191Z,98174.09
2023-04-01T22:23:51.354Z,98179.05
2023-04-01T22:26:58.815Z,98183.34
2023-04-01T22:29:53.131Z,98190.02
2023-04-01T22:33:07.208Z,98192.20
2023-04-01T22:36:25.417Z,98195.16
2023-04-01T22:39:14.076Z,98199.61
2023-04-01T22:41:58.771Z,98202.14
2023-04-01T22:44:53.134Z,98202.20
2023-04-01T22:47:29.722Z,98205.17
2023-04-01T22:49:58.943Z,98203.81
2023-04-01T22:53:26.179Z,98206.85
2023-04-01T22:56:33.987Z,98219.23
2023-04-01T22:59:48.417Z,98226.41
2023-04-01T23:02:57.076Z,98237.27
